createdAt,value
2022-09-27T00:01:19.773Z,70.70
2022-09-27T00:03:46.059Z,70.68
2022-09-27T00:06:12.361Z,70.62
2022-09-27T00:08:38.617Z,70.51
2022-09-27T00:11:04.871Z,70.48
2022-09-27T00:13:31.123Z,70.20
2022-09-27T00:15:57.411Z,70.55
2022-09-27T00:18:23.724Z,70.68
2022-09-27T00:20:49.975Z,70.80
2022-09-27T00:23:16.232Z,70.72
2022-09-27T00:25:42.488Z,70.48
2022-09-27T00:28:08.794Z,70.59
2022-09-27T00:30:35.112Z,70.71
2022-09-27T00:33:01.426Z,70.78
2022-09-27T00:35:27.674Z,70.64
2022-09-27T00:37:53.959Z,70.79
2022-09-27T00:40:24.093Z,70.68
2022-09-27T00:42:50.586Z,70.98
2022-09-27T00:45:17.841Z,70.77
2022-09-27T00:47:44.165Z,70.74
2022-09-27T00:50:10.818Z,70.68
2022-09-27T00:52:37.221Z,70.89
2022-09-27T00:55:03.482Z,70.93
2022-09-27T00:57:29.757Z,71.17
2022-09-27T00:59:56.006Z,70.73
2022-09-27T01:02:22.411Z,70.77
2022-09-27T01:04:49.667Z,70.58
2022-09-27T01:07:15.924Z,70.72
2022-09-27T01:09:42.177Z,70.66
2022-09-27T01:12:08.530Z,70.61
2022-09-27T01:14:34.778Z,70.71
2022-09-27T01:17:01.657Z,70.90
2022-09-27T01:19:27.916Z,70.30
2022-09-27T01:21:54.200Z,69.98
2022-09-27T01:24:20.822Z,70.02
2022-09-27T01:26:47.079Z,70.32
2022-09-27T01:29:13.405Z,70.66
2022-09-27T01:31:39.703Z,70.10
2022-09-27T01:34:05.950Z,70.13
2022-09-27T01:36:32.347Z,70.71
2022-09-27T01:38:59.809Z,71.09
2022-09-27T01:41:26.056Z,71.02
2022-09-27T01:43:52.319Z,71.35
2022-09-27T01:46:18.587Z,71.40
2022-09-27T01:48:44.858Z,71.29
2022-09-27T01:51:11.102Z,71.04
2022-09-27T01:53:37.404Z,70.92
2022-09-27T01:56:03.654Z,70.93
2022-09-27T01:58:29.967Z,70.69
2022-09-27T02:00:56.455Z,70.65
2022-09-27T02:03:22.730Z,70.60
2022-09-27T02:05:48.989Z,70.59
2022-09-27T02:08:15.268Z,70.39
2022-09-27T02:10:41.530Z,70.70
2022-09-27T02:13:07.802Z,70.38
2022-09-27T02:15:34.091Z,70.30
2022-09-27T02:18:00.371Z,70.59
2022-09-27T02:20:26.616Z,70.61
2022-09-27T02:22:52.870Z,70.74
2022-09-27T02:25:19.122Z,71.08
2022-09-27T02:27:45.428Z,70.91
2022-09-27T02:30:12.300Z,71.05
2022-09-27T02:32:38.547Z,71.20
2022-09-27T02:35:04.802Z,71.12
2022-09-27T02:37:31.066Z,71.67
2022-09-27T02:39:57.322Z,71.94
2022-09-27T02:42:23.570Z,71.92
2022-09-27T02:44:49.826Z,72.24
2022-09-27T02:47:16.071Z,72.35
2022-09-27T02:49:42.460Z,72.59
2022-09-27T02:52:08.715Z,72.47
2022-09-27T02:54:34.966Z,72.65
2022-09-27T02:57:01.216Z,73.24
2022-09-27T02:59:27.474Z,72.93
2022-09-27T03:01:53.751Z,73.89
2022-09-27T03:04:22.614Z,73.63
2022-09-27T03:06:48.879Z,73.65
2022-09-27T03:09:15.206Z,74.18
2022-09-27T03:11:41.590Z,74.10
2022-09-27T03:14:09.260Z,74.02
2022-09-27T03:16:35.821Z,74.56
2022-09-27T03:19:02.116Z,74.89
2022-09-27T03:21:29.154Z,75.32
2022-09-27T03:23:55.406Z,75.67
2022-09-27T03:26:21.682Z,75.96
2022-09-27T03:28:47.939Z,76.69
2022-09-27T03:31:14.761Z,76.63
2022-09-27T03:33:41.094Z,77.74
2022-09-27T03:36:07.348Z,78.37
2022-09-27T03:38:33.601Z,78.85
2022-09-27T03:40:59.901Z,79.03
2022-09-27T03:43:26.158Z,78.96
2022-09-27T03:45:52.461Z,79.00
2022-09-27T03:48:18.773Z,79.79
2022-09-27T03:50:45.026Z,80.54
2022-09-27T03:53:11.283Z,80.42
2022-09-27T03:55:37.531Z,80.21
2022-09-27T03:58:03.791Z,81.61
2022-09-27T04:00:32.563Z,82.55
2022-09-27T04:02:59.540Z,83.03
2022-09-27T04:05:25.833Z,83.62
2022-09-27T04:07:52.083Z,83.64
2022-09-27T04:10:18.332Z,83.89
2022-09-27T04:12:44.594Z,83.40
2022-09-27T04:15:11.131Z,83.57
2022-09-27T04:17:37.405Z,83.97
2022-09-27T04:20:03.969Z,84.38
2022-09-27T04:22:30.218Z,84.51
2022-09-27T04:24:56.491Z,84.95
2022-09-27T04:27:22.737Z,85.41
2022-09-27T04:29:48.986Z,85.61
2022-09-27T04:32:15.229Z,85.56
2022-09-27T04:34:59.968Z,86.56
2022-09-27T04:37:26.222Z,86.26
2022-09-27T04:39:52.530Z,85.82
2022-09-27T04:42:18.898Z,86.25
2022-09-27T04:44:45.159Z,86.49
2022-09-27T04:47:11.415Z,86.94
2022-09-27T04:49:38.762Z,86.58
2022-09-27T04:52:05.988Z,86.35
2022-09-27T04:54:32.247Z,86.33
2022-09-27T04:56:58.495Z,86.39
2022-09-27T04:59:24.744Z,86.34
2022-09-27T05:01:51.061Z,86.40
2022-09-27T05:04:17.385Z,86.34
2022-09-27T05:06:43.656Z,85.79
2022-09-27T05:09:09.930Z,86.10
2022-09-27T05:11:37.962Z,86.76
2022-09-27T05:14:04.138Z,87.07
2022-09-27T05:16:33.338Z,86.88
2022-09-27T05:19:00.575Z,86.81
2022-09-27T05:21:26.831Z,86.59
2022-09-27T05:23:53.987Z,87.37
2022-09-27T05:26:20.759Z,86.85
2022-09-27T05:28:47.266Z,86.77
2022-09-27T05:31:14.358Z,86.33
2022-09-27T05:33:40.669Z,86.72
2022-09-27T05:36:06.979Z,86.90
2022-09-27T05:38:33.232Z,87.01
2022-09-27T05:40:59.594Z,86.91
2022-09-27T05:43:26.132Z,86.93
2022-09-27T05:45:53.002Z,86.48
2022-09-27T05:48:19.370Z,86.31
2022-09-27T05:50:45.712Z,86.60
2022-09-27T05:53:13.142Z,86.66
2022-09-27T05:55:39.430Z,86.69
2022-09-27T05:58:05.680Z,86.53
2022-09-27T06:00:31.959Z,86.19
2022-09-27T06:02:58.880Z,86.51
2022-09-27T06:05:25.258Z,86.82
2022-09-27T06:07:51.494Z,86.94
2022-09-27T06:10:17.847Z,87.92
2022-09-27T06:12:44.187Z,87.36
2022-09-27T06:15:10.444Z,86.81
2022-09-27T06:17:36.766Z,87.34
2022-09-27T06:20:03.019Z,87.60
2022-09-27T06:22:29.272Z,87.52
2022-09-27T06:24:55.577Z,87.24
2022-09-27T06:27:21.849Z,86.38
2022-09-27T06:29:48.148Z,86.38
2022-09-27T06:32:14.414Z,86.35
2022-09-27T06:34:41.671Z,86.35
2022-09-27T06:37:07.911Z,86.21
2022-09-27T06:39:34.911Z,87.09
2022-09-27T06:42:01.296Z,86.72
2022-09-27T06:44:27.548Z,86.55
2022-09-27T06:46:55.135Z,86.07
2022-09-27T06:49:22.603Z,87.28
2022-09-27T06:51:48.876Z,87.09
2022-09-27T06:54:15.148Z,86.94
2022-09-27T06:56:41.398Z,86.84
2022-09-27T06:59:26.390Z,86.37
2022-09-27T07:01:52.834Z,85.83
2022-09-27T07:04:19.399Z,84.68
2022-09-27T07:06:45.683Z,85.09
2022-09-27T07:09:11.957Z,85.77
2022-09-27T07:11:38.249Z,86.20
2022-09-27T07:14:08.122Z,86.29
2022-09-27T07:16:34.865Z,86.17
2022-09-27T07:19:01.185Z,86.06
2022-09-27T07:21:27.583Z,86.54
2022-09-27T07:23:53.850Z,85.50
2022-09-27T07:26:20.368Z,85.34
2022-09-27T07:28:46.625Z,85.07
2022-09-27T07:31:12.950Z,85.23
2022-09-27T07:33:43.166Z,84.02
2022-09-27T07:36:09.825Z,85.18
2022-09-27T07:38:36.254Z,83.96
2022-09-27T07:41:02.517Z,83.75
2022-09-27T07:43:28.790Z,83.56
2022-09-27T07:45:55.119Z,83.41
2022-09-27T07:48:21.423Z,83.33
2022-09-27T07:50:48.198Z,83.31
2022-09-27T07:53:15.002Z,82.89
2022-09-27T07:55:42.297Z,82.37
2022-09-27T07:58:08.862Z,82.89
2022-09-27T08:00:35.123Z,84.11
2022-09-27T08:03:01.399Z,82.98
2022-09-27T08:05:27.661Z,83.07
2022-09-27T08:07:53.992Z,82.80
2022-09-27T08:10:20.826Z,83.42
2022-09-27T08:12:47.095Z,82.49
2022-09-27T08:15:13.389Z,82.38
2022-09-27T08:17:39.640Z,83.72
2022-09-27T08:20:06.394Z,83.66
2022-09-27T08:22:32.668Z,82.35
2022-09-27T08:24:58.942Z,81.37
2022-09-27T08:27:25.271Z,79.55
2022-09-27T08:29:52.181Z,78.83
2022-09-27T08:32:22.989Z,78.80
2022-09-27T08:34:49.878Z,78.65
2022-09-27T08:37:16.186Z,77.13
2022-09-27T08:39:46.864Z,76.96
2022-09-27T08:42:14.157Z,76.73
2022-09-27T08:44:41.027Z,76.06
2022-09-27T08:47:07.294Z,74.84
2022-09-27T08:49:33.830Z,75.85
2022-09-27T08:52:00.408Z,75.03
2022-09-27T08:54:29.416Z,73.46
2022-09-27T08:56:56.892Z,73.30
2022-09-27T08:59:23.156Z,70.45
2022-09-27T09:01:49.424Z,72.13
2022-09-27T09:04:15.768Z,72.57
2022-09-27T09:06:42.089Z,71.60
2022-09-27T09:09:08.330Z,71.69
2022-09-27T09:11:53.486Z,71.58
2022-09-27T09:14:19.990Z,70.74
2022-09-27T09:16:47.269Z,69.09
2022-09-27T09:19:13.613Z,69.33
2022-09-27T09:21:39.901Z,69.59
2022-09-27T09:24:06.154Z,72.26
2022-09-27T09:26:32.414Z,71.13
2022-09-27T09:28:58.704Z,72.99
2022-09-27T09:31:25.226Z,71.65
2022-09-27T09:33:51.604Z,73.01
2022-09-27T09:36:17.863Z,71.89
2022-09-27T09:38:44.135Z,70.64
2022-09-27T09:41:10.384Z,70.29
2022-09-27T09:43:36.639Z,71.03
2022-09-27T09:46:03.009Z,70.62
2022-09-27T09:48:29.334Z,70.12
2022-09-27T09:50:55.591Z,70.07
2022-09-27T09:53:21.844Z,70.44
2022-09-27T09:55:48.896Z,68.64
2022-09-27T09:58:19.664Z,70.20
2022-09-27T10:00:46.294Z,71.06
2022-09-27T10:03:12.619Z,71.77
2022-09-27T10:05:38.895Z,72.17
2022-09-27T10:08:05.147Z,72.06
2022-09-27T10:10:31.400Z,70.81
2022-09-27T10:12:57.651Z,71.66
2022-09-27T10:15:23.932Z,70.26
2022-09-27T10:17:50.511Z,70.01
2022-09-27T10:20:16.783Z,70.67
2022-09-27T10:22:43.052Z,71.13
2022-09-27T10:25:09.378Z,69.98
2022-09-27T10:27:35.644Z,68.08
2022-09-27T10:30:01.935Z,66.71
2022-09-27T10:32:30.744Z,65.08
2022-09-27T10:34:57.001Z,65.14
2022-09-27T10:37:23.271Z,64.77
2022-09-27T10:39:50.783Z,65.23
2022-09-27T10:42:17.029Z,64.52
2022-09-27T10:44:43.282Z,64.31
2022-09-27T10:47:09.786Z,65.56
2022-09-27T10:49:36.052Z,63.58
2022-09-27T10:52:02.480Z,64.39
2022-09-27T10:54:28.738Z,64.64
2022-09-27T10:56:55.832Z,65.16
2022-09-27T10:59:22.384Z,66.21
2022-09-27T11:01:50.189Z,67.35
2022-09-27T11:04:16.707Z,67.02
2022-09-27T11:06:43.104Z,67.67
2022-09-27T11:09:09.369Z,68.91
2022-09-27T11:11:35.687Z,68.19
2022-09-27T11:14:04.357Z,68.65
2022-09-27T11:16:30.716Z,69.27
2022-09-27T11:18:57.367Z,68.70
2022-09-27T11:21:24.617Z,69.54
2022-09-27T11:23:50.806Z,68.10
2022-09-27T11:26:17.241Z,67.31
2022-09-27T11:28:43.496Z,68.44
2022-09-27T11:31:09.825Z,69.19
2022-09-27T11:33:36.205Z,70.40
2022-09-27T11:36:02.460Z,70.29
2022-09-27T11:38:52.335Z,69.78
2022-09-27T11:41:14.954Z,69.92
2022-09-27T11:43:41.205Z,70.05
2022-09-27T11:46:19.274Z,72.10
2022-09-27T11:48:49.322Z,72.56
2022-09-27T11:51:16.047Z,73.12
2022-09-27T11:53:42.421Z,73.19
2022-09-27T11:56:08.707Z,74.11
2022-09-27T11:58:34.984Z,73.72
2022-09-27T12:01:01.553Z,73.83
2022-09-27T12:03:27.849Z,71.49
2022-09-27T12:05:58.166Z,71.42
2022-09-27T12:08:25.080Z,69.61
2022-09-27T12:10:51.340Z,70.12
2022-09-27T12:13:17.625Z,68.85
2022-09-27T12:15:43.919Z,70.48
2022-09-27T12:18:10.370Z,71.39
2022-09-27T12:20:36.748Z,70.82
2022-09-27T12:23:03.009Z,69.77
2022-09-27T12:25:29.931Z,69.43
2022-09-27T12:27:56.183Z,68.95
2022-09-27T12:30:22.439Z,69.88
2022-09-27T12:32:48.768Z,69.65
2022-09-27T12:35:15.033Z,70.64
2022-09-27T12:37:41.291Z,73.79
2022-09-27T12:40:07.552Z,73.17
2022-09-27T12:42:33.801Z,72.83
2022-09-27T12:45:00.061Z,71.88
2022-09-27T12:47:26.320Z,72.33
2022-09-27T12:49:53.463Z,71.83
2022-09-27T12:52:25.186Z,71.34
2022-09-27T12:54:51.476Z,71.74
2022-09-27T12:57:18.397Z,71.00
2022-09-27T12:59:44.665Z,69.95
2022-09-27T13:02:11.045Z,69.89
2022-09-27T13:04:37.779Z,73.14
2022-09-27T13:07:04.960Z,75.76
2022-09-27T13:09:31.156Z,75.27
2022-09-27T13:11:57.816Z,75.91
2022-09-27T13:14:24.088Z,76.07
2022-09-27T13:16:51.375Z,73.45
2022-09-27T13:19:17.688Z,71.63
2022-09-27T13:21:43.940Z,68.51
2022-09-27T13:24:12.864Z,70.05
2022-09-27T13:26:39.144Z,69.73
2022-09-27T13:29:05.407Z,69.03
2022-09-27T13:31:31.676Z,71.05
2022-09-27T13:33:57.935Z,70.48
2022-09-27T13:36:25.122Z,67.49
2022-09-27T13:38:51.367Z,67.77
2022-09-27T13:41:18.193Z,64.78
2022-09-27T13:43:44.819Z,66.00
2022-09-27T13:46:13.474Z,65.86
2022-09-27T13:48:39.777Z,64.65
2022-09-27T13:51:06.219Z,64.44
2022-09-27T13:53:32.473Z,65.16
2022-09-27T13:55:58.733Z,64.53
2022-09-27T13:58:25.224Z,64.34
2022-09-27T14:00:51.598Z,64.10
2022-09-27T14:03:17.902Z,64.11
2022-09-27T14:05:44.160Z,64.32
2022-09-27T14:08:10.482Z,63.64
2022-09-27T14:10:36.782Z,62.80
2022-09-27T14:13:03.052Z,62.42
2022-09-27T14:15:29.339Z,62.18
2022-09-27T14:17:55.621Z,63.34
2022-09-27T14:20:23.720Z,63.91
2022-09-27T14:22:49.911Z,64.42
2022-09-27T14:25:16.176Z,65.01
2022-09-27T14:27:42.441Z,65.04
2022-09-27T14:30:08.696Z,64.88
2022-09-27T14:32:35.123Z,66.60
2022-09-27T14:35:01.440Z,66.98
2022-09-27T14:37:28.811Z,66.97
2022-09-27T14:39:55.099Z,67.56
2022-09-27T14:42:21.649Z,66.76
2022-09-27T14:44:47.931Z,66.02
2022-09-27T14:47:14.185Z,65.95
2022-09-27T14:49:40.444Z,66.09
2022-09-27T14:52:06.696Z,67.14
2022-09-27T14:54:33.008Z,67.42
2022-09-27T14:57:00.184Z,66.24
2022-09-27T14:59:30.704Z,67.03
2022-09-27T15:01:56.956Z,65.98
2022-09-27T15:04:24.431Z,66.35
2022-09-27T15:06:50.824Z,65.01
2022-09-27T15:09:17.278Z,65.33
2022-09-27T15:11:44.385Z,65.22
2022-09-27T15:14:11.391Z,66.62
2022-09-27T15:16:37.665Z,66.39
2022-09-27T15:19:04.033Z,66.00
2022-09-27T15:21:30.996Z,67.60
2022-09-27T15:23:58.749Z,67.06
2022-09-27T15:26:25.023Z,66.68
2022-09-27T15:28:52.203Z,67.83
2022-09-27T15:31:18.467Z,67.99
2022-09-27T15:33:45.833Z,68.05
2022-09-27T15:36:15.525Z,67.60
2022-09-27T15:38:47.255Z,67.71
2022-09-27T15:41:13.620Z,67.23
2022-09-27T15:43:40.073Z,67.80
2022-09-27T15:46:06.922Z,68.52
2022-09-27T15:48:33.404Z,67.75
2022-09-27T15:50:59.881Z,69.44
2022-09-27T15:53:26.252Z,68.96
2022-09-27T15:55:52.505Z,68.56
2022-09-27T15:58:18.786Z,66.88
2022-09-27T16:00:45.096Z,68.35
2022-09-27T16:03:11.394Z,67.63
2022-09-27T16:05:37.648Z,65.85
2022-09-27T16:08:04.270Z,67.03
2022-09-27T16:10:30.623Z,66.40
2022-09-27T16:12:56.882Z,66.43
2022-09-27T16:15:23.134Z,66.14
2022-09-27T16:17:49.429Z,66.89
2022-09-27T16:20:15.667Z,66.63
2022-09-27T16:22:41.952Z,66.82
2022-09-27T16:25:08.209Z,66.53
2022-09-27T16:27:35.015Z,66.03
2022-09-27T16:30:01.274Z,66.00
2022-09-27T16:32:27.690Z,65.48
2022-09-27T16:34:53.986Z,66.13
2022-09-27T16:37:20.378Z,65.60
2022-09-27T16:39:46.618Z,66.09
2022-09-27T16:42:13.614Z,65.68
2022-09-27T16:44:39.917Z,67.10
2022-09-27T16:47:08.952Z,70.24
2022-09-27T16:49:54.147Z,71.67
2022-09-27T16:52:20.439Z,74.03
2022-09-27T16:54:46.683Z,73.48
2022-09-27T16:57:12.943Z,74.09
2022-09-27T16:59:39.196Z,74.17
2022-09-27T17:02:05.849Z,74.47
2022-09-27T17:04:32.325Z,73.64
2022-09-27T17:06:58.594Z,73.92
2022-09-27T17:09:24.850Z,74.19
2022-09-27T17:11:51.109Z,75.91
2022-09-27T17:14:18.058Z,75.67
2022-09-27T17:16:44.549Z,76.25
2022-09-27T17:19:10.802Z,76.30
2022-09-27T17:21:38.158Z,76.86
2022-09-27T17:24:04.961Z,76.69
2022-09-27T17:26:31.897Z,76.04
2022-09-27T17:28:58.136Z,75.10
2022-09-27T17:31:25.310Z,76.33
2022-09-27T17:33:56.786Z,76.04
2022-09-27T17:36:24.183Z,77.58
2022-09-27T17:38:50.440Z,78.28
2022-09-27T17:41:16.700Z,78.08
2022-09-27T17:43:50.149Z,76.97
2022-09-27T17:46:16.636Z,77.13
2022-09-27T17:49:01.684Z,77.19
2022-09-27T17:51:29.268Z,76.68
2022-09-27T17:53:55.502Z,76.65
2022-09-27T17:56:22.860Z,76.11
2022-09-27T17:58:49.064Z,76.19
2022-09-27T18:01:15.344Z,77.19
2022-09-27T18:03:41.593Z,77.28
2022-09-27T18:06:07.848Z,77.96
2022-09-27T18:08:34.095Z,79.17
2022-09-27T18:11:01.358Z,78.88
2022-09-27T18:13:29.410Z,77.98
2022-09-27T18:15:57.577Z,78.12
2022-09-27T18:18:23.870Z,78.25
2022-09-27T18:20:50.128Z,78.38
2022-09-27T18:23:16.374Z,77.21
2022-09-27T18:25:43.035Z,78.12
2022-09-27T18:28:09.457Z,78.50
2022-09-27T18:30:35.700Z,77.27
2022-09-27T18:33:01.950Z,77.31
2022-09-27T18:35:28.954Z,78.82
2022-09-27T18:37:55.208Z,79.44
2022-09-27T18:40:44.528Z,79.50
2022-09-27T18:43:07.977Z,79.99
2022-09-27T18:45:34.240Z,79.17
2022-09-27T18:48:00.494Z,79.26
2022-09-27T18:50:26.743Z,78.15
2022-09-27T18:52:52.986Z,78.29
2022-09-27T18:55:22.149Z,78.02
2022-09-27T18:57:51.465Z,77.40
2022-09-27T19:00:17.934Z,76.82
2022-09-27T19:02:44.480Z,77.62
2022-09-27T19:05:10.730Z,77.50
2022-09-27T19:07:36.987Z,78.28
2022-09-27T19:10:04.958Z,77.09
2022-09-27T19:12:31.212Z,75.85
2022-09-27T19:14:57.472Z,77.24
2022-09-27T19:17:23.719Z,77.50
2022-09-27T19:19:50.738Z,77.61
2022-09-27T19:22:17.000Z,77.66
2022-09-27T19:24:43.253Z,78.66
2022-09-27T19:27:09.502Z,79.49
2022-09-27T19:29:36.788Z,78.54
2022-09-27T19:32:03.052Z,78.80
2022-09-27T19:34:29.320Z,78.32
2022-09-27T19:36:55.599Z,78.96
2022-09-27T19:39:21.852Z,79.97
2022-09-27T19:41:48.324Z,79.00
2022-09-27T19:44:14.746Z,78.63
2022-09-27T19:46:41.105Z,78.68
2022-09-27T19:49:07.563Z,76.89
2022-09-27T19:51:33.977Z,77.73
2022-09-27T19:54:00.231Z,77.48
2022-09-27T19:56:26.549Z,78.90
2022-09-27T19:58:53.159Z,79.52
2022-09-27T20:01:20.134Z,78.62
2022-09-27T20:03:46.450Z,78.61
2022-09-27T20:06:12.764Z,78.00
2022-09-27T20:08:39.006Z,78.00
2022-09-27T20:11:06.618Z,77.98
2022-09-27T20:13:33.050Z,77.60
2022-09-27T20:15:59.357Z,78.49
2022-09-27T20:18:25.619Z,78.61
2022-09-27T20:20:51.867Z,77.43
2022-09-27T20:23:19.983Z,78.01
2022-09-27T20:25:46.376Z,77.96
2022-09-27T20:28:12.631Z,77.81
2022-09-27T20:30:39.092Z,79.02
2022-09-27T20:33:23.923Z,78.78
2022-09-27T20:35:50.276Z,78.20
2022-09-27T20:38:16.514Z,78.76
2022-09-27T20:40:42.839Z,77.94
2022-09-27T20:43:09.109Z,79.43
2022-09-27T20:45:35.360Z,79.01
2022-09-27T20:48:01.618Z,79.32
2022-09-27T20:50:27.879Z,79.73
2022-09-27T20:52:54.132Z,80.15
2022-09-27T20:55:20.370Z,81.14
2022-09-27T20:57:57.354Z,80.84
2022-09-27T21:00:24.185Z,80.87
2022-09-27T21:02:50.430Z,80.01
2022-09-27T21:05:16.702Z,79.65
2022-09-27T21:07:42.965Z,80.10
2022-09-27T21:10:09.228Z,80.56
2022-09-27T21:12:35.524Z,80.15
2022-09-27T21:15:01.767Z,80.99
2022-09-27T21:17:28.011Z,79.78
2022-09-27T21:19:54.266Z,79.77
2022-09-27T21:22:20.805Z,79.91
2022-09-27T21:24:47.060Z,79.73
2022-09-27T21:27:13.308Z,80.06
2022-09-27T21:29:39.568Z,80.17
2022-09-27T21:32:05.825Z,80.60
2022-09-27T21:34:32.086Z,82.52
2022-09-27T21:36:58.532Z,82.50
2022-09-27T21:39:24.923Z,81.79
2022-09-27T21:41:51.176Z,81.78
2022-09-27T21:44:18.432Z,82.68
2022-09-27T21:46:44.722Z,82.14
2022-09-27T21:49:11.376Z,81.66
2022-09-27T21:51:37.666Z,81.00
2022-09-27T21:54:03.905Z,81.18
2022-09-27T21:56:30.360Z,82.48
2022-09-27T21:58:56.643Z,81.99
2022-09-27T22:01:22.968Z,80.80
2022-09-27T22:03:49.264Z,81.32
2022-09-27T22:06:15.514Z,81.59
2022-09-27T22:08:41.759Z,81.92
2022-09-27T22:11:08.022Z,81.55
2022-09-27T22:13:34.266Z,82.12
2022-09-27T22:16:00.577Z,83.37
2022-09-27T22:18:26.971Z,81.79
2022-09-27T22:20:53.224Z,81.75
2022-09-27T22:23:19.475Z,81.50
2022-09-27T22:25:45.966Z,82.56
2022-09-27T22:28:12.215Z,82.89
2022-09-27T22:30:38.496Z,82.48
2022-09-27T22:33:04.747Z,81.88
2022-09-27T22:35:31.174Z,82.54
2022-09-27T22:37:57.426Z,81.29
2022-09-27T22:40:23.790Z,80.52
2022-09-27T22:42:51.280Z,81.35
2022-09-27T22:45:18.318Z,80.02
2022-09-27T22:47:44.562Z,78.29
2022-09-27T22:50:10.840Z,79.28
2022-09-27T22:52:37.363Z,79.22
2022-09-27T22:55:03.621Z,79.39
2022-09-27T22:57:29.885Z,78.48
2022-09-27T22:59:56.158Z,79.35
2022-09-27T23:02:22.433Z,79.68
2022-09-27T23:04:48.926Z,80.43
2022-09-27T23:07:15.174Z,80.72
2022-09-27T23:09:41.436Z,80.31
2022-09-27T23:12:07.760Z,80.34
2022-09-27T23:14:34.014Z,79.59
2022-09-27T23:17:01.466Z,80.37
2022-09-27T23:19:27.726Z,79.54
2022-09-27T23:21:54.082Z,79.89
2022-09-27T23:24:20.641Z,81.31
2022-09-27T23:27:06.886Z,80.09
2022-09-27T23:29:33.150Z,79.98
2022-09-27T23:31:59.655Z,80.34
2022-09-27T23:34:25.924Z,80.00
2022-09-27T23:36:52.533Z,81.07
2022-09-27T23:39:18.804Z,81.35
2022-09-27T23:41:45.056Z,81.68
2022-09-27T23:44:13.192Z,81.93
2022-09-27T23:46:41.237Z,82.11
2022-09-27T23:49:07.548Z,81.00
2022-09-27T23:51:33.793Z,81.31
2022-09-27T23:54:00.298Z,82.01
2022-09-27T23:56:26.653Z,81.63
2022-09-27T23:58:52.909Z,80.75
